Partly Cloudy Current Weather (METAR) For Cancun Airport

All times on the weather descriptions are local

Observed at 15:41 - (52 mins ago)

Partly Cloudy

24°C

Partly Cloudy
Clouds: Scattered Clouds at 2,500ft
Wind: 080° at 07 knots
Visibility: 7 statute miles
QNH:
Dew Point: 15°C
Runway in Use: Runway 12

Sunrise Today: 06:23
Sunset Today: 17:38

Forecast Weather (TAF) For Cancun Airport

Issued at 18:00 - (22 hrs 33 mins ago)


Runway in Use: Unable to determine, wind is clam

Forecast valid until 18:00 on Friday

METAR/TAF RAW METAR / TAF

MMUN 312141Z 08007KT 7SM SCT025 24/15 A3007 RMK 8/500 AS CI

Weather Widget

Put weather from any of our airports on your website with our weather widget.

Find Another Search

Airport Search


Please Wait Please Wait - Loading
Close
Close

Login

Username:

Password:

Remember Me:

Remember me on this computer

Forgotten your password? Get a reset password sent to your registered e-mail address

Close

User Private Message

Subject:

Message: